Nieuw Amsterdam — PBWQ — position and weather

sailwx.info

Track history (hours):
 
Tides and Currents Weather Stations Pressure Air Temp Water Temp Dewpoint Dewpoint Depression Visibility Wind Speed Wind Dir Waves Ship Positions

Nieuw Amsterdam

Last reported at 2017-Jun-23 18:30 UTC. Time now 2017-Jun-23 18:53 UTC.
Position N 50°51' W 127°31'.

Length 285 m; draft 8 m.

Type: Passenger vessel. MMSI: 246648000.

Date/timePositionNaut miles runAvg speedWind from/ knotsBaromVisibWave heightAir tempDewpointWater temp
2017-Jun-23 18:30N 50°51' W 127°31'917.7
2017-Jun-23 18:00N 50°56' W 127°42'714.8
2017-Jun-23 17:30N 51°00' W 127°52'917.3
2017-Jun-23 17:00N 51°05' W 128°03'917.2
2017-Jun-23 16:30N 51°10' W 128°14'917.4
2017-Jun-23 16:00N 51°16' W 128°26'917.3
2017-Jun-23 15:30N 51°21' W 128°36'918.5
2017-Jun-23 15:00N 51°29' W 128°45'2020.3
2017-Jun-23 14:00N 51°45' W 129°05'1020.9
2017-Jun-23 13:30N 51°53' W 129°15'1121.4
2017-Jun-23 13:00N 52°02' W 129°25'1121.9
2017-Jun-23 12:30N 52°10' W 129°36'1122.0
2017-Jun-23 12:00N 52°19' W 129°47'38311.6
2017-Jun-22 03:00N 57°24' W 136°30'7915.7 120 / 131024.810.8 11.5 9.715.9
2017-Jun-21 22:00N 58°42' W 136°12'3 0.5 120 / 41023.010.8 9.9 8.215.9
2017-Jun-21 16:00N 58°42' W 136°18'52 2.2 290 / 41020.310.8 9.9 8.215.9
2017-Jun-20 16:00N 59°24' W 135°18'327 8.6 200 / 201010.5 5.4 11.9 7.611.6
2017-Jun-19 02:00N 54°24' W 131°18'3316.6 170 / 121013.510.8 13.0 7.216.1
2017-Jun-19 00:00N 53°54' W 130°54'6020.0 190 / 81014.610.8 13.6 6.916.1
2017-Jun-18 21:00N 53°12' W 129°42'4919.9 240 / 101015.610.8 15.7 4.416.1
2017-Jun-18 18:31N 52°33' W 128°53'320.7
2017-Jun-18 18:22N 52°30' W 128°52'720.3
2017-Jun-18 18:00N 52°23' W 128°50'1020.6
2017-Jun-18 17:30N 52°12' W 128°47'1020.3
2017-Jun-18 17:00N 52°02' W 128°44'1020.1
2017-Jun-18 16:30N 51°53' W 128°40'1121.0
2017-Jun-18 16:00N 51°43' W 128°35'1020.4
2017-Jun-18 15:30N 51°33' W 128°32'1020.7
2017-Jun-18 15:00N 51°22' W 128°33'1019.8
2017-Jun-18 14:30N 51°14' W 128°23'11520.1
2017-Jun-18 08:47N 50°22' W 125°42'919.7
2017-Jun-18 08:19N 50°20' W 125°27'414.3
2017-Jun-18 08:00N 50°17' W 125°24'917.7
2017-Jun-18 07:30N 50°08' W 125°21'713.5
2017-Jun-18 07:00N 50°03' W 125°14'713.6
2017-Jun-18 06:30N 49°57' W 125°08'713.8
2017-Jun-18 06:00N 49°53' W 125°00'713.6
2017-Jun-18 05:30N 49°48' W 124°53'714.3
2017-Jun-18 05:00N 49°42' W 124°46'714.4
2017-Jun-18 04:30N 49°37' W 124°38'714.2
2017-Jun-18 04:00N 49°32' W 124°31'2111.0
2017-Jun-18 04:00N 49°30' W 124°30'712.2 210 / 101017.910.8 13.4 8.916.1
2017-Jun-18 03:27N 49°27' W 124°21'814.7
2017-Jun-18 02:55N 49°24' W 124°10'614.4
2017-Jun-18 02:30N 49°24' W 124°01'815.2
2017-Jun-18 02:00N 49°23' W 123°49'815.4
2017-Jun-18 01:30N 49°21' W 123°38'814.9
2017-Jun-18 01:00N 49°19' W 123°27'2207.8
2017-Jun-18 01:00N 49°18' W 123°24'511.2 170 / 171019.010.8 14.6 7.9
2017-Jun-18 00:30N 49°19' W 123°16'612.2
2017-Jun-18 00:01N 49°18' W 123°07'1 1.7
2017-Jun-17 23:29N 49°17' W 123°07'0 0.0
2017-Jun-17 22:59N 49°17' W 123°07'0 0.0
2017-Jun-17 22:29N 49°17' W 123°07'0 0.0
2017-Jun-17 21:59N 49°17' W 123°07'0 0.0
2017-Jun-17 21:29N 49°17' W 123°07'0 0.0
2017-Jun-17 20:59N 49°17' W 123°07'0 0.0
2017-Jun-17 20:28N 49°17' W 123°07'0 0.0
2017-Jun-17 20:00N 49°17' W 123°07'0 0.0
2017-Jun-17 19:29N 49°17' W 123°07'0 0.0
2017-Jun-17 18:58N 49°17' W 123°07'0 0.0
2017-Jun-17 18:30N 49°17' W 123°07'0 0.0
2017-Jun-17 18:00N 49°17' W 123°07'0 0.0
2017-Jun-17 17:29N 49°17' W 123°07'0 0.0
2017-Jun-17 16:59N 49°17' W 123°07'0 0.0
2017-Jun-17 16:29N 49°17' W 123°07'0 0.0
2017-Jun-17 15:59N 49°17' W 123°07'0 0.0
2017-Jun-17 15:29N 49°17' W 123°07'0 0.0
2017-Jun-17 14:58N 49°17' W 123°07'0 0.0
2017-Jun-17 14:28N 49°17' W 123°07'2 1.8
2017-Jun-17 13:30N 49°19' W 123°08'4 7.2
2017-Jun-17 13:00N 49°19' W 123°14'5 9.1
2017-Jun-17 12:30N 49°18' W 123°21'4 8.9
2017-Jun-17 12:00N 49°19' W 123°27'4 9.0
2017-Jun-17 11:30N 49°19' W 123°34'4 8.1
2017-Jun-17 11:00N 49°19' W 123°41'4 7.6
2017-Jun-17 10:30N 49°19' W 123°46'4 7.8
2017-Jun-17 10:00N 49°20' W 123°52'4 8.5
2017-Jun-17 09:30N 49°21' W 123°58'4 8.2
2017-Jun-17 08:58N 49°22' W 124°05'4 8.2
2017-Jun-17 08:29N 49°23' W 124°11'4 7.4
2017-Jun-17 07:54N 49°25' W 124°17'3 7.2
2017-Jun-17 07:30N 49°26' W 124°21'4 7.7
2017-Jun-17 07:00N 49°28' W 124°26'4 7.4
2017-Jun-17 06:30N 49°31' W 124°30'4 7.5
2017-Jun-17 06:00N 49°33' W 124°34'3 6.9
2017-Jun-17 05:30N 49°36' W 124°38'3 6.9
2017-Jun-17 05:00N 49°39' W 124°41'4 7.5
2017-Jun-17 04:30N 49°41' W 124°45'4 7.6
2017-Jun-17 04:00N 49°44' W 124°49'3 6.6
2017-Jun-17 03:30N 49°47' W 124°53'3 6.7
2017-Jun-17 03:00N 49°49' W 124°56'4 7.6
2017-Jun-17 02:30N 49°52' W 125°01'4 7.4
2017-Jun-17 02:00N 49°54' W 125°05'4 7.7
2017-Jun-17 01:30N 49°57' W 125°09'510.5
2017-Jun-17 01:01N 50°01' W 125°13'815.2
2017-Jun-17 00:30N 50°07' W 125°20'713.0
2017-Jun-17 00:00N 50°14' W 125°23'715.0
2017-Jun-16 23:30N 50°21' W 125°28'816.3
2017-Jun-16 22:59N 50°22' W 125°40'10517.8
2017-Jun-16 17:05N 51°09' W 128°10'119.8
2017-Jun-16 17:00N 51°09' W 128°12'1019.5
2017-Jun-16 16:30N 51°15' W 128°25'1020.0
2017-Jun-16 16:00N 51°22' W 128°37'1019.9
2017-Jun-16 15:30N 51°30' W 128°46'1019.9
2017-Jun-16 15:01N 51°38' W 128°56'1020.2
2017-Jun-16 14:31N 51°46' W 129°06'2019.9
2017-Jun-16 13:30N 52°01' W 129°25'28610.4
2017-Jun-15 10:00N 56°00' W 133°54'15715.7 100 / 151005.210.8 7.3 4.113.7
2017-Jun-15 00:00N 58°20' W 136°07'714.8
2017-Jun-14 23:30N 58°26' W 135°59'4 9.0
2017-Jun-14 23:00N 58°30' W 136°03'816.4
2017-Jun-14 22:30N 58°38' W 136°06'2 0.3
2017-Jun-14 15:38N 58°40' W 136°09'415.8
2017-Jun-14 15:24N 58°37' W 136°05'614.7
2017-Jun-14 15:00N 58°31' W 136°03'612.5
2017-Jun-14 14:30N 58°25' W 135°58'  
Track history (hours):
 
Tides and Currents Weather Stations Pressure Air Temp Water Temp Dewpoint Dewpoint Depression Visibility Wind Speed Wind Dir Waves Ship Positions

Nieuw Amsterdam

Last reported at 2017-Jun-23 18:30 UTC. Time now 2017-Jun-23 18:53 UTC.
Position N 50°51' W 127°31'.

Length 285 m; draft 8 m.

Type: Passenger vessel. MMSI: 246648000.

Date/timePositionNaut miles runAvg speedWind from/ knotsBaromVisibWave heightAir tempDewpointWater temp
2017-Jun-23 18:30N 50°51' W 127°31'917.7
2017-Jun-23 18:00N 50°56' W 127°42'714.8
2017-Jun-23 17:30N 51°00' W 127°52'917.3
2017-Jun-23 17:00N 51°05' W 128°03'917.2
2017-Jun-23 16:30N 51°10' W 128°14'917.4
2017-Jun-23 16:00N 51°16' W 128°26'917.3
2017-Jun-23 15:30N 51°21' W 128°36'918.5
2017-Jun-23 15:00N 51°29' W 128°45'2020.3
2017-Jun-23 14:00N 51°45' W 129°05'1020.9
2017-Jun-23 13:30N 51°53' W 129°15'1121.4
2017-Jun-23 13:00N 52°02' W 129°25'1121.9
2017-Jun-23 12:30N 52°10' W 129°36'1122.0
2017-Jun-23 12:00N 52°19' W 129°47'38311.6
2017-Jun-22 03:00N 57°24' W 136°30'7915.7 120 / 131024.810.8 11.5 9.715.9
2017-Jun-21 22:00N 58°42' W 136°12'3 0.5 120 / 41023.010.8 9.9 8.215.9
2017-Jun-21 16:00N 58°42' W 136°18'52 2.2 290 / 41020.310.8 9.9 8.215.9
2017-Jun-20 16:00N 59°24' W 135°18'327 8.6 200 / 201010.5 5.4 11.9 7.611.6
2017-Jun-19 02:00N 54°24' W 131°18'3316.6 170 / 121013.510.8 13.0 7.216.1
2017-Jun-19 00:00N 53°54' W 130°54'6020.0 190 / 81014.610.8 13.6 6.916.1
2017-Jun-18 21:00N 53°12' W 129°42'4919.9 240 / 101015.610.8 15.7 4.416.1
2017-Jun-18 18:31N 52°33' W 128°53'320.7
2017-Jun-18 18:22N 52°30' W 128°52'720.3
2017-Jun-18 18:00N 52°23' W 128°50'1020.6
2017-Jun-18 17:30N 52°12' W 128°47'1020.3
2017-Jun-18 17:00N 52°02' W 128°44'1020.1
2017-Jun-18 16:30N 51°53' W 128°40'1121.0
2017-Jun-18 16:00N 51°43' W 128°35'1020.4
2017-Jun-18 15:30N 51°33' W 128°32'1020.7
2017-Jun-18 15:00N 51°22' W 128°33'1019.8
2017-Jun-18 14:30N 51°14' W 128°23'11520.1
2017-Jun-18 08:47N 50°22' W 125°42'919.7
2017-Jun-18 08:19N 50°20' W 125°27'414.3
2017-Jun-18 08:00N 50°17' W 125°24'917.7
2017-Jun-18 07:30N 50°08' W 125°21'713.5
2017-Jun-18 07:00N 50°03' W 125°14'713.6
2017-Jun-18 06:30N 49°57' W 125°08'713.8
2017-Jun-18 06:00N 49°53' W 125°00'713.6
2017-Jun-18 05:30N 49°48' W 124°53'714.3
2017-Jun-18 05:00N 49°42' W 124°46'714.4
2017-Jun-18 04:30N 49°37' W 124°38'714.2
2017-Jun-18 04:00N 49°32' W 124°31'2111.0
2017-Jun-18 04:00N 49°30' W 124°30'712.2 210 / 101017.910.8 13.4 8.916.1
2017-Jun-18 03:27N 49°27' W 124°21'814.7
2017-Jun-18 02:55N 49°24' W 124°10'614.4
2017-Jun-18 02:30N 49°24' W 124°01'815.2
2017-Jun-18 02:00N 49°23' W 123°49'815.4
2017-Jun-18 01:30N 49°21' W 123°38'814.9
2017-Jun-18 01:00N 49°19' W 123°27'2207.8
2017-Jun-18 01:00N 49°18' W 123°24'511.2 170 / 171019.010.8 14.6 7.9
2017-Jun-18 00:30N 49°19' W 123°16'612.2
2017-Jun-18 00:01N 49°18' W 123°07'1 1.7
2017-Jun-17 23:29N 49°17' W 123°07'0 0.0
2017-Jun-17 22:59N 49°17' W 123°07'0 0.0
2017-Jun-17 22:29N 49°17' W 123°07'0 0.0
2017-Jun-17 21:59N 49°17' W 123°07'0 0.0
2017-Jun-17 21:29N 49°17' W 123°07'0 0.0
2017-Jun-17 20:59N 49°17' W 123°07'0 0.0
2017-Jun-17 20:28N 49°17' W 123°07'0 0.0
2017-Jun-17 20:00N 49°17' W 123°07'0 0.0
2017-Jun-17 19:29N 49°17' W 123°07'0 0.0
2017-Jun-17 18:58N 49°17' W 123°07'0 0.0
2017-Jun-17 18:30N 49°17' W 123°07'0 0.0
2017-Jun-17 18:00N 49°17' W 123°07'0 0.0
2017-Jun-17 17:29N 49°17' W 123°07'0 0.0
2017-Jun-17 16:59N 49°17' W 123°07'0 0.0
2017-Jun-17 16:29N 49°17' W 123°07'0 0.0
2017-Jun-17 15:59N 49°17' W 123°07'0 0.0
2017-Jun-17 15:29N 49°17' W 123°07'0 0.0
2017-Jun-17 14:58N 49°17' W 123°07'0 0.0
2017-Jun-17 14:28N 49°17' W 123°07'2 1.8
2017-Jun-17 13:30N 49°19' W 123°08'4 7.2
2017-Jun-17 13:00N 49°19' W 123°14'5 9.1
2017-Jun-17 12:30N 49°18' W 123°21'4 8.9
2017-Jun-17 12:00N 49°19' W 123°27'4 9.0
2017-Jun-17 11:30N 49°19' W 123°34'4 8.1
2017-Jun-17 11:00N 49°19' W 123°41'4 7.6
2017-Jun-17 10:30N 49°19' W 123°46'4 7.8
2017-Jun-17 10:00N 49°20' W 123°52'4 8.5
2017-Jun-17 09:30N 49°21' W 123°58'4 8.2
2017-Jun-17 08:58N 49°22' W 124°05'4 8.2
2017-Jun-17 08:29N 49°23' W 124°11'4 7.4
2017-Jun-17 07:54N 49°25' W 124°17'3 7.2
2017-Jun-17 07:30N 49°26' W 124°21'4 7.7
2017-Jun-17 07:00N 49°28' W 124°26'4 7.4
2017-Jun-17 06:30N 49°31' W 124°30'4 7.5
2017-Jun-17 06:00N 49°33' W 124°34'3 6.9
2017-Jun-17 05:30N 49°36' W 124°38'3 6.9
2017-Jun-17 05:00N 49°39' W 124°41'4 7.5
2017-Jun-17 04:30N 49°41' W 124°45'4 7.6
2017-Jun-17 04:00N 49°44' W 124°49'3 6.6
2017-Jun-17 03:30N 49°47' W 124°53'3 6.7
2017-Jun-17 03:00N 49°49' W 124°56'4 7.6
2017-Jun-17 02:30N 49°52' W 125°01'4 7.4
2017-Jun-17 02:00N 49°54' W 125°05'4 7.7
2017-Jun-17 01:30N 49°57' W 125°09'510.5
2017-Jun-17 01:01N 50°01' W 125°13'815.2
2017-Jun-17 00:30N 50°07' W 125°20'713.0
2017-Jun-17 00:00N 50°14' W 125°23'715.0
2017-Jun-16 23:30N 50°21' W 125°28'816.3
2017-Jun-16 22:59N 50°22' W 125°40'10517.8
2017-Jun-16 17:05N 51°09' W 128°10'119.8
2017-Jun-16 17:00N 51°09' W 128°12'1019.5
2017-Jun-16 16:30N 51°15' W 128°25'1020.0
2017-Jun-16 16:00N 51°22' W 128°37'1019.9
2017-Jun-16 15:30N 51°30' W 128°46'1019.9
2017-Jun-16 15:01N 51°38' W 128°56'1020.2
2017-Jun-16 14:31N 51°46' W 129°06'2019.9
2017-Jun-16 13:30N 52°01' W 129°25'28610.4
2017-Jun-15 10:00N 56°00' W 133°54'15715.7 100 / 151005.210.8 7.3 4.113.7
2017-Jun-15 00:00N 58°20' W 136°07'714.8
2017-Jun-14 23:30N 58°26' W 135°59'4 9.0
2017-Jun-14 23:00N 58°30' W 136°03'816.4
2017-Jun-14 22:30N 58°38' W 136°06'2 0.3
2017-Jun-14 15:38N 58°40' W 136°09'415.8
2017-Jun-14 15:24N 58°37' W 136°05'614.7
2017-Jun-14 15:00N 58°31' W 136°03'612.5
2017-Jun-14 14:30N 58°25' W 135°58'  

Dump ship's entire track history